Time;durP1;ratioP1;P1;durP2;ratioP2;P2;SDS_P1;SDS_P2;PMS_P1;PMS_P2;Temp;Humidity;BMP_temperature;BMP_pressure;BME280_temperature;BME280_humidity;BME280_pressure;Samples;Min_cycle;Max_cycle;Signal;HPM_P1;HPM_P2
2022/09/27 00:01:57;;;;;;;2.25;2.05;;;;;;;-145.23;100.00;58621.06;4999627;28;20232;-53
2022/09/27 00:04:24;;;;;;;3.33;1.90;;;;;;;-145.23;100.00;58621.06;4997147;28;20724;-52
2022/09/27 00:06:51;;;;;;;2.63;1.90;;;;;;;-145.23;100.00;58621.06;4991478;28;20243;-52
2022/09/27 00:09:18;;;;;;;2.38;1.50;;;;;;;-145.23;100.00;58621.06;4997473;28;20582;-53
2022/09/27 00:11:46;;;;;;;2.65;1.92;;;;;;;-145.23;100.00;58621.06;5001665;28;20804;-52
2022/09/27 00:14:16;;;;;;;1.70;1.30;;;;;;;-145.23;100.00;58621.06;4998294;28;20229;-52
2022/09/27 00:16:44;;;;;;;2.33;2.13;;;;;;;-145.23;100.00;58621.06;4987189;28;20230;-51
2022/09/27 00:19:13;;;;;;;3.17;1.95;;;;;;;-145.23;100.00;58621.06;4983556;28;20233;-52
2022/09/27 00:21:40;;;;;;;1.85;1.73;;;;;;;-145.23;100.00;58621.06;5000480;28;20256;-51
2022/09/27 00:24:07;;;;;;;2.35;2.22;;;;;;;-145.23;100.00;58621.06;4988739;28;20296;-51
2022/09/27 00:26:33;;;;;;;3.28;1.55;;;;;;;-145.23;100.00;58621.06;4996746;28;20228;-51
2022/09/27 00:29:01;;;;;;;2.90;1.50;;;;;;;-145.23;100.00;58621.06;4997025;28;20229;-51
2022/09/27 00:31:29;;;;;;;2.45;1.92;;;;;;;-145.23;100.00;58621.06;4988168;28;20324;-52
2022/09/27 00:33:57;;;;;;;4.32;1.63;;;;;;;-145.23;100.00;58621.06;5000072;28;20248;-51
2022/09/27 00:36:24;;;;;;;2.63;1.80;;;;;;;-145.23;100.00;58621.06;4995281;28;20719;-52
2022/09/27 00:38:52;;;;;;;1.05;1.05;;;;;;;-145.23;100.00;58621.06;5002966;28;20251;-52
2022/09/27 00:41:20;;;;;;;1.80;1.38;;;;;;;-145.23;100.00;58621.06;4995553;28;20241;-52
2022/09/27 00:43:49;;;;;;;6.93;1.77;;;;;;;-145.23;100.00;58621.06;4996386;28;20296;-53
2022/09/27 00:46:22;;;;;;;2.45;1.60;;;;;;;-145.23;100.00;58621.06;4991658;28;20248;-52
2022/09/27 00:48:49;;;;;;;4.22;1.73;;;;;;;-145.23;100.00;58621.06;4998785;28;20230;-50
2022/09/27 00:51:16;;;;;;;3.28;1.83;;;;;;;-145.23;100.00;58621.06;4996981;28;20612;-52
2022/09/27 00:53:47;;;;;;;1.98;1.77;;;;;;;-145.23;100.00;58621.06;4995515;28;20244;-53
2022/09/27 00:56:18;;;;;;;3.47;1.70;;;;;;;-145.23;100.00;58621.06;4998120;28;20602;-55
2022/09/27 00:58:48;;;;;;;1.80;1.70;;;;;;;-145.23;100.00;58621.06;4994651;28;20313;-52
2022/09/27 01:01:15;;;;;;;1.83;1.73;;;;;;;-145.23;100.00;58621.06;5010631;28;20240;-51
2022/09/27 01:03:48;;;;;;;1.17;1.17;;;;;;;-145.23;100.00;58621.06;5007513;28;20233;-51
2022/09/27 01:06:16;;;;;;;2.00;1.80;;;;;;;-145.23;100.00;58621.06;4991715;28;20222;-52
2022/09/27 01:08:43;;;;;;;1.85;1.38;;;;;;;-145.23;100.00;58621.06;4997608;28;20257;-51
2022/09/27 01:11:14;;;;;;;1.95;1.80;;;;;;;-145.23;100.00;58621.06;4990486;28;20652;-53
2022/09/27 01:13:47;;;;;;;2.00;1.52;;;;;;;-145.23;100.00;58621.06;5002372;28;20232;-53
2022/09/27 01:16:18;;;;;;;3.00;1.50;;;;;;;-145.23;100.00;58621.06;5002861;28;20586;-53
2022/09/27 01:18:58;;;;;;;1.33;1.27;;;;;;;-145.23;100.00;58621.06;4992620;28;20241;-54
2022/09/27 01:21:39;;;;;;;1.73;1.58;;;;;;;-145.23;100.00;58621.06;4991144;28;20553;-53
2022/09/27 01:24:29;;;;;;;2.90;2.15;;;;;;;-145.23;100.00;58621.06;4996110;28;20233;-54
2022/09/27 01:27:13;;;;;;;1.83;1.63;;;;;;;-145.23;100.00;58621.06;4998071;28;20339;-52
2022/09/27 01:29:53;;;;;;;1.40;1.30;;;;;;;-145.23;100.00;58621.06;4989054;28;20240;-52
2022/09/27 01:32:25;;;;;;;1.52;1.42;;;;;;;-145.23;100.00;58621.06;4995100;28;20229;-53
2022/09/27 01:35:00;;;;;;;2.50;1.40;;;;;;;-145.23;100.00;58621.06;4992673;28;20229;-51
2022/09/27 01:37:34;;;;;;;4.32;1.60;;;;;;;-145.23;100.00;58621.06;4990080;28;20619;-52
2022/09/27 01:40:05;;;;;;;1.75;1.52;;;;;;;-145.23;100.00;58621.06;4997106;28;20235;-51
2022/09/27 01:42:39;;;;;;;1.40;1.10;;;;;;;-145.23;100.00;58621.06;5008206;28;20239;-51
2022/09/27 01:45:09;;;;;;;1.50;1.30;;;;;;;-145.23;100.00;58621.06;4995466;28;20234;-52
2022/09/27 01:47:40;;;;;;;2.55;1.58;;;;;;;-145.23;100.00;58621.06;4997480;28;20324;-52
2022/09/27 01:50:09;;;;;;;1.90;1.70;;;;;;;-145.23;100.00;58621.06;5000661;28;20238;-51
2022/09/27 01:52:41;;;;;;;3.33;1.40;;;;;;;-145.23;100.00;58621.06;4998256;28;20312;-51
2022/09/27 01:55:10;;;;;;;1.05;1.05;;;;;;;-145.23;100.00;58621.06;4990167;28;20312;-51
2022/09/27 01:57:39;;;;;;;1.58;1.48;;;;;;;-145.23;100.00;58621.06;4990964;28;20238;-52
2022/09/27 02:00:09;;;;;;;1.25;1.23;;;;;;;-145.23;100.00;58621.06;5008991;28;20251;-50
2022/09/27 02:02:40;;;;;;;2.65;1.42;;;;;;;-145.23;100.00;58621.06;4994598;28;20236;-52
2022/09/27 02:05:08;;;;;;;1.67;1.25;;;;;;;-145.23;100.00;58621.06;5001821;28;20240;-50
2022/09/27 02:07:39;;;;;;;2.30;1.50;;;;;;;-145.23;100.00;58621.06;4992228;28;20716;-52
2022/09/27 02:10:08;;;;;;;1.35;1.25;;;;;;;-145.23;100.00;58621.06;4992602;28;20233;-53
2022/09/27 02:12:40;;;;;;;2.08;1.30;;;;;;;-145.23;100.00;58621.06;4990196;28;20234;-51
2022/09/27 02:15:09;;;;;;;1.23;1.10;;;;;;;-145.23;100.00;58621.06;4994772;28;20248;-51
2022/09/27 02:17:40;;;;;;;7.68;1.77;;;;;;;-145.23;100.00;58621.06;4991008;28;20254;-52
2022/09/27 02:20:13;;;;;;;1.50;1.40;;;;;;;-145.23;100.00;58621.06;5002580;28;20627;-53
2022/09/27 02:22:43;;;;;;;1.45;1.20;;;;;;;-145.23;100.00;58621.06;4995937;28;20233;-52
2022/09/27 02:25:14;;;;;;;1.05;0.95;;;;;;;-145.23;100.00;58621.06;4996573;28;20236;-53
2022/09/27 02:27:49;;;;;;;1.38;1.20;;;;;;;-145.23;100.00;58621.06;4992497;28;20236;-51
2022/09/27 02:30:17;;;;;;;1.40;1.30;;;;;;;-145.23;100.00;58621.06;4996431;28;20243;-52
2022/09/27 02:32:45;;;;;;;1.95;1.67;;;;;;;-145.23;100.00;58621.06;4992183;28;20719;-52
2022/09/27 02:35:15;;;;;;;2.45;1.63;;;;;;;-145.23;100.00;58621.06;4991328;28;20240;-49
2022/09/27 02:37:42;;;;;;;1.40;1.30;;;;;;;-145.23;100.00;58621.06;4989793;28;20229;-52
2022/09/27 02:40:09;;;;;;;1.65;1.40;;;;;;;-145.23;100.00;58621.06;5000713;28;20235;-52
2022/09/27 02:42:36;;;;;;;1.30;1.20;;;;;;;-145.23;100.00;58621.06;4990049;28;20233;-50
2022/09/27 02:45:04;;;;;;;2.58;1.38;;;;;;;-145.23;100.00;58621.06;4987961;28;20734;-52
2022/09/27 02:48:03;;;;;;;2.17;1.10;;;;;;;-145.23;100.00;58621.06;4988167;28;20238;-51
2022/09/27 02:51:01;;;;;;;1.23;1.13;;;;;;;-145.23;100.00;58621.06;4982127;28;20711;-51
2022/09/27 02:53:39;;;;;;;1.65;1.55;;;;;;;-145.23;100.00;58621.06;4995415;28;20706;-51
2022/09/27 02:56:10;;;;;;;1.08;1.00;;;;;;;-145.23;100.00;58621.06;4995883;28;20244;-52
2022/09/27 02:58:47;;;;;;;1.00;1.00;;;;;;;-145.23;100.00;58621.06;4993412;28;20240;-51
2022/09/27 03:01:22;;;;;;;2.85;1.50;;;;;;;-145.23;100.00;58621.06;4986731;28;20237;-52
2022/09/27 03:03:52;;;;;;;2.33;1.48;;;;;;;-145.23;100.00;58621.06;4996122;28;20264;-51
2022/09/27 03:06:20;;;;;;;1.80;1.40;;;;;;;-145.23;100.00;58621.06;4999740;28;20241;-52
2022/09/27 03:08:47;;;;;;;1.10;1.10;;;;;;;-145.23;100.00;58621.06;4993852;28;20245;-51
2022/09/27 03:11:14;;;;;;;2.15;1.42;;;;;;;-145.23;100.00;58621.06;4991297;28;21580;-52
2022/09/27 03:13:41;;;;;;;1.92;1.20;;;;;;;-145.23;100.00;58621.06;5008545;28;20791;-52
2022/09/27 03:16:08;;;;;;;1.50;1.23;;;;;;;-145.23;100.00;58621.06;4991402;28;20230;-51
2022/09/27 03:18:34;;;;;;;1.67;1.42;;;;;;;-145.23;100.00;58621.06;4988046;28;20288;-52
2022/09/27 03:21:01;;;;;;;1.52;1.40;;;;;;;-145.23;100.00;58621.06;5004831;28;20234;-51
2022/09/27 03:23:29;;;;;;;1.88;1.38;;;;;;;-145.23;100.00;58621.06;4996184;28;20582;-52
2022/09/27 03:25:56;;;;;;;1.77;1.30;;;;;;;-145.23;100.00;58621.06;4996198;28;20230;-52
2022/09/27 03:28:24;;;;;;;3.30;1.60;;;;;;;-145.23;100.00;58621.06;4987850;28;20229;-53
2022/09/27 03:30:50;;;;;;;1.52;1.30;;;;;;;-145.23;100.00;58621.06;4988897;28;20231;-54
2022/09/27 03:33:17;;;;;;;1.83;1.60;;;;;;;-145.23;100.00;58621.06;4990675;28;20237;-52
2022/09/27 03:35:44;;;;;;;1.55;1.45;;;;;;;-145.23;100.00;58621.06;5002362;28;20280;-52
2022/09/27 03:38:11;;;;;;;1.77;1.50;;;;;;;-145.23;100.00;58621.06;5007399;28;20236;-54
2022/09/27 03:40:39;;;;;;;1.50;1.40;;;;;;;-145.23;100.00;58621.06;4993598;28;20229;-51
2022/09/27 03:43:05;;;;;;;2.78;1.55;;;;;;;-145.23;100.00;58621.06;4992467;28;20241;-51
2022/09/27 03:45:32;;;;;;;2.75;1.52;;;;;;;-145.23;100.00;58621.06;4990375;28;20609;-51
2022/09/27 03:47:59;;;;;;;1.70;1.60;;;;;;;-145.23;100.00;58621.06;5005504;28;20240;-50
2022/09/27 03:50:25;;;;;;;2.15;1.60;;;;;;;-145.23;100.00;58621.06;4993814;28;20233;-53
2022/09/27 03:52:53;;;;;;;1.52;1.42;;;;;;;-145.23;100.00;58621.06;4992940;28;20287;-52
2022/09/27 03:55:19;;;;;;;1.90;1.80;;;;;;;-145.23;100.00;58621.06;4985608;28;20230;-50
2022/09/27 03:57:47;;;;;;;2.03;1.92;;;;;;;-145.23;100.00;58621.06;4992703;28;20247;-52
2022/09/27 04:00:14;;;;;;;2.20;2.03;;;;;;;-145.23;100.00;58621.06;4994322;28;20255;-52
2022/09/27 04:02:41;;;;;;;1.98;1.88;;;;;;;-145.23;100.00;58621.06;5003795;28;20235;-51
2022/09/27 04:05:08;;;;;;;2.30;1.60;;;;;;;-145.23;100.00;58621.06;5003628;28;20606;-53
2022/09/27 04:07:34;;;;;;;2.38;1.98;;;;;;;-145.23;100.00;58621.06;5020866;28;20232;-52
2022/09/27 04:10:01;;;;;;;2.93;1.47;;;;;;;-145.23;100.00;58621.06;5011821;28;20229;-52
2022/09/27 04:12:28;;;;;;;1.73;1.63;;;;;;;-145.23;100.00;58621.06;5000420;28;21954;-51
2022/09/27 04:14:56;;;;;;;4.93;1.90;;;;;;;-145.23;100.00;58621.06;4996186;28;20654;-53
2022/09/27 04:17:24;;;;;;;1.97;1.77;;;;;;;-145.23;100.00;58621.06;4997934;28;20229;-51
2022/09/27 04:19:51;;;;;;;1.67;1.57;;;;;;;-145.23;100.00;58621.06;4997993;28;20238;-51
2022/09/27 04:22:17;;;;;;;3.20;1.67;;;;;;;-145.23;100.00;58621.06;4994835;28;20308;-52
2022/09/27 04:24:44;;;;;;;3.97;1.97;;;;;;;-145.23;100.00;58621.06;4993460;28;20245;-51
2022/09/27 04:27:10;;;;;;;1.90;1.50;;;;;;;-145.23;100.00;58621.06;5000476;28;20247;-52
2022/09/27 04:29:41;;;;;;;1.43;1.33;;;;;;;-145.23;100.00;58621.06;4987972;28;20238;-54
2022/09/27 04:32:09;;;;;;;2.03;1.83;;;;;;;-145.23;100.00;58621.06;5000982;28;20333;-52
2022/09/27 04:37:19;;;;;;;1.73;1.63;;;;;;;-145.23;100.00;58621.06;4991895;28;20327;-53
2022/09/27 04:39:48;;;;;;;1.80;1.70;;;;;;;-145.23;100.00;58621.06;4998755;28;20244;-50
2022/09/27 04:42:14;;;;;;;2.00;1.90;;;;;;;-145.23;100.00;58621.06;4991302;28;20250;-51
2022/09/27 04:44:41;;;;;;;3.07;2.33;;;;;;;-145.23;100.00;58621.06;5002355;28;20226;-52
2022/09/27 04:47:09;;;;;;;1.90;1.77;;;;;;;-145.23;100.00;58621.06;5008570;28;20300;-51
2022/09/27 04:49:37;;;;;;;2.70;2.33;;;;;;;-145.23;100.00;58621.06;5001587;28;20607;-51
2022/09/27 04:52:04;;;;;;;2.17;1.97;;;;;;;-145.23;100.00;58621.06;4995505;28;20241;-52
2022/09/27 04:54:31;;;;;;;2.47;2.27;;;;;;;-145.23;100.00;58621.06;4997691;28;20234;-52
2022/09/27 04:56:58;;;;;;;1.87;1.77;;;;;;;-145.23;100.00;58621.06;4999720;28;20414;-51
2022/09/27 04:59:24;;;;;;;2.23;1.77;;;;;;;-145.23;100.00;58621.06;4993110;28;20229;-52
2022/09/27 05:01:52;;;;;;;2.10;2.00;;;;;;;-145.23;100.00;58621.06;5001218;28;20233;-51
2022/09/27 05:04:20;;;;;;;2.40;2.20;;;;;;;-145.23;100.00;58621.06;5009944;28;20320;-51
2022/09/27 05:06:47;;;;;;;2.13;1.97;;;;;;;-145.23;100.00;58621.06;4991612;28;20240;-53
2022/09/27 05:09:13;;;;;;;2.97;2.17;;;;;;;-145.23;100.00;58621.06;5001189;28;20388;-51
2022/09/27 05:11:40;;;;;;;3.33;2.50;;;;;;;-145.23;100.00;58621.06;4994035;28;20495;-52
2022/09/27 05:14:06;;;;;;;2.63;2.00;;;;;;;-145.23;100.00;58621.06;5011814;28;20332;-56
2022/09/27 05:16:33;;;;;;;2.50;2.30;;;;;;;-145.23;100.00;58621.06;5003942;28;20232;-51
2022/09/27 05:18:59;;;;;;;2.40;2.20;;;;;;;-145.23;100.00;58621.06;4990340;28;20234;-53
2022/09/27 05:21:27;;;;;;;2.60;2.40;;;;;;;-145.23;100.00;58621.06;4998058;28;20597;-53
2022/09/27 05:23:54;;;;;;;2.50;2.30;;;;;;;-145.23;100.00;58621.06;4996042;28;20729;-51
2022/09/27 05:26:20;;;;;;;2.17;1.97;;;;;;;-145.23;100.00;58621.06;4987899;28;20242;-50
2022/09/27 05:28:47;;;;;;;2.77;2.57;;;;;;;-145.23;100.00;58621.06;4989296;28;20241;-53
2022/09/27 05:31:13;;;;;;;4.23;2.10;;;;;;;-145.23;100.00;58621.06;4994787;28;20233;-51
2022/09/27 05:33:40;;;;;;;3.83;2.20;;;;;;;-145.23;100.00;58621.06;4998864;28;20339;-52
2022/09/27 05:36:08;;;;;;;2.27;2.07;;;;;;;-145.23;100.00;58621.06;4985939;28;20724;-52
2022/09/27 05:38:36;;;;;;;3.50;2.53;;;;;;;-145.23;100.00;58621.06;4993905;28;20592;-52
2022/09/27 05:41:04;;;;;;;3.43;2.60;;;;;;;-145.23;100.00;58621.06;5008364;28;20241;-51
2022/09/27 05:43:31;;;;;;;6.33;2.53;;;;;;;-145.23;100.00;58621.06;4999995;28;20237;-51
2022/09/27 05:45:57;;;;;;;2.87;2.50;;;;;;;-145.23;100.00;58621.06;4989629;28;20329;-52
2022/09/27 05:48:24;;;;;;;2.67;2.47;;;;;;;-145.23;100.00;58621.06;4997524;28;20238;-51
2022/09/27 05:50:50;;;;;;;2.80;2.30;;;;;;;-145.23;100.00;58621.06;5001209;28;20264;-51
2022/09/27 05:53:17;;;;;;;3.77;2.70;;;;;;;-145.23;100.00;58621.06;4998032;28;20704;-51
2022/09/27 05:55:45;;;;;;;3.17;2.67;;;;;;;-145.23;100.00;58621.06;5010000;28;20232;-51
2022/09/27 05:58:15;;;;;;;4.50;2.70;;;;;;;-145.23;100.00;58621.06;5004896;28;20234;-51
2022/09/27 06:00:42;;;;;;;3.97;2.40;;;;;;;-145.23;100.00;58621.06;4992824;28;20269;-53
2022/09/27 06:03:10;;;;;;;2.90;2.70;;;;;;;-145.23;100.00;58621.06;4996149;28;20244;-52
2022/09/27 06:05:38;;;;;;;3.50;2.20;;;;;;;-145.23;100.00;58621.06;4996512;28;20241;-52
2022/09/27 06:08:07;;;;;;;3.10;2.90;;;;;;;-145.23;100.00;58621.06;4993288;28;20236;-52
2022/09/27 06:10:34;;;;;;;3.50;2.33;;;;;;;-145.23;100.00;58621.06;4991138;28;20721;-51
2022/09/27 06:13:02;;;;;;;4.97;3.13;;;;;;;-145.23;100.00;58621.06;4996950;28;20272;-52
2022/09/27 06:15:30;;;;;;;4.03;2.53;;;;;;;-145.23;100.00;58621.06;4997500;28;20248;-51
2022/09/27 06:17:57;;;;;;;3.20;2.63;;;;;;;-145.23;100.00;58621.06;4994685;28;20242;-52
2022/09/27 06:20:23;;;;;;;2.30;2.10;;;;;;;-145.23;100.00;58621.06;4995979;28;20226;-52
2022/09/27 06:22:50;;;;;;;2.93;2.70;;;;;;;-145.23;100.00;58621.06;4991709;28;20237;-51
2022/09/27 06:25:16;;;;;;;2.70;2.50;;;;;;;-145.23;100.00;58621.06;4994051;28;20260;-52
2022/09/27 06:27:43;;;;;;;2.70;2.50;;;;;;;-145.23;100.00;58621.06;4998061;28;20241;-52
2022/09/27 06:30:11;;;;;;;2.33;2.13;;;;;;;-145.23;100.00;58621.06;5005205;28;20253;-56
2022/09/27 06:32:38;;;;;;;2.70;1.87;;;;;;;-145.23;100.00;58621.06;5004977;28;20715;-53
2022/09/27 06:35:05;;;;;;;2.23;2.13;;;;;;;-145.23;100.00;58621.06;5003686;28;20281;-59
2022/09/27 06:37:33;;;;;;;2.43;2.20;;;;;;;-145.23;100.00;58621.06;4996750;28;20230;-51
2022/09/27 06:39:59;;;;;;;2.70;2.27;;;;;;;-145.23;100.00;58621.06;4993005;28;20242;-51
2022/09/27 06:42:27;;;;;;;2.63;2.37;;;;;;;-145.23;100.00;58621.06;4995114;28;20241;-51
2022/09/27 06:44:53;;;;;;;2.57;2.37;;;;;;;-145.23;100.00;58621.06;4993449;28;20245;-51
2022/09/27 06:47:22;;;;;;;2.73;2.30;;;;;;;-145.23;100.00;58621.06;4995469;28;20237;-51
2022/09/27 06:49:49;;;;;;;4.63;2.70;;;;;;;-145.23;100.00;58621.06;4992766;28;20233;-54
2022/09/27 06:52:15;;;;;;;2.23;2.03;;;;;;;-145.23;100.00;58621.06;4987035;28;20240;-51
2022/09/27 06:54:42;;;;;;;4.37;2.30;;;;;;;-145.23;100.00;58621.06;4996117;28;20244;-51
2022/09/27 06:57:08;;;;;;;3.43;2.43;;;;;;;-145.23;100.00;58621.06;4988249;28;20269;-52
2022/09/27 07:02:20;;;;;;;1.90;1.80;;;;;;;-145.23;100.00;58621.06;4995784;28;20374;-51
2022/09/27 07:04:47;;;;;;;2.53;2.27;;;;;;;-145.23;100.00;58621.06;4990462;28;20260;-53
2022/09/27 07:07:13;;;;;;;2.93;2.73;;;;;;;-145.23;100.00;58621.06;5006027;28;20347;-52
2022/09/27 07:09:41;;;;;;;3.63;2.47;;;;;;;-145.23;100.00;58621.06;4996873;28;20237;-53
2022/09/27 07:12:07;;;;;;;6.13;2.77;;;;;;;-145.23;100.00;58621.06;4992755;28;20249;-54
2022/09/27 07:14:34;;;;;;;2.40;2.20;;;;;;;-145.23;100.00;58621.06;4999391;28;20237;-50
2022/09/27 07:17:01;;;;;;;2.83;2.60;;;;;;;-145.23;100.00;58621.06;4985193;28;20246;-52
2022/09/27 07:19:29;;;;;;;2.57;2.17;;;;;;;-145.23;100.00;58621.06;4987620;28;20232;-52
2022/09/27 07:21:55;;;;;;;2.33;2.00;;;;;;;-145.23;100.00;58621.06;5012951;28;20232;-52
2022/09/27 07:24:22;;;;;;;2.07;1.87;;;;;;;-145.23;100.00;58621.06;4989937;28;20237;-52
2022/09/27 07:26:48;;;;;;;4.13;2.40;;;;;;;-145.23;100.00;58621.06;4991327;28;20320;-52
2022/09/27 07:29:15;;;;;;;2.77;2.53;;;;;;;-145.23;100.00;58621.06;4993441;28;20233;-52
2022/09/27 07:37:40;;;;;;;3.00;2.63;;;;;;;-145.23;100.00;58621.06;4971323;28;20891;-52
2022/09/27 07:40:08;;;;;;;3.17;2.87;;;;;;;-145.23;100.00;58621.06;4976465;28;20247;-51
2022/09/27 07:42:36;;;;;;;2.70;2.00;;;;;;;-145.23;100.00;58621.06;4991485;28;20242;-52
2022/09/27 07:45:03;;;;;;;2.67;2.47;;;;;;;-145.23;100.00;58621.06;4974731;28;20243;-51
2022/09/27 07:47:30;;;;;;;2.20;2.10;;;;;;;-145.23;100.00;58621.06;4979160;28;20234;-51
2022/09/27 07:49:56;;;;;;;2.93;2.53;;;;;;;-145.23;100.00;58621.06;4978727;28;20743;-52
2022/09/27 07:52:23;;;;;;;2.73;2.37;;;;;;;-145.23;100.00;58621.06;4981740;28;20230;-52
2022/09/27 07:54:51;;;;;;;2.63;2.43;;;;;;;-145.23;100.00;58621.06;4986447;28;20244;-51
2022/09/27 07:57:21;;;;;;;3.33;2.77;;;;;;;-145.23;100.00;58621.06;4978303;28;20231;-52
2022/09/27 07:59:48;;;;;;;2.57;2.20;;;;;;;-145.23;100.00;58621.06;4984987;28;20245;-51
2022/09/27 08:02:15;;;;;;;10.07;2.57;;;;;;;-145.23;100.00;58621.06;4979769;28;20229;-52
2022/09/27 08:04:42;;;;;;;3.23;2.93;;;;;;;-145.23;100.00;58621.06;4982147;28;20237;-53
2022/09/27 08:07:09;;;;;;;2.67;2.47;;;;;;;-145.23;100.00;58621.06;4972538;28;20651;-51
2022/09/27 08:09:36;;;;;;;2.80;2.60;;;;;;;-145.23;100.00;58621.06;4982919;28;20581;-52
2022/09/27 08:12:04;;;;;;;2.20;2.00;;;;;;;-145.23;100.00;58621.06;4977511;28;20241;-53
2022/09/27 08:14:30;;;;;;;2.70;2.50;;;;;;;-145.23;100.00;58621.06;4974225;28;20264;-52
2022/09/27 08:16:57;;;;;;;4.37;2.03;;;;;;;-145.23;100.00;58621.06;4976893;28;20249;-52
2022/09/27 08:19:25;;;;;;;2.40;2.20;;;;;;;-145.23;100.00;58621.06;4980013;28;20284;-53
2022/09/27 08:21:53;;;;;;;5.43;2.40;;;;;;;-145.23;100.00;58621.06;4979914;28;20716;-52
2022/09/27 08:24:20;;;;;;;2.50;2.27;;;;;;;-145.23;100.00;58621.06;4977070;28;20256;-53
2022/09/27 08:26:46;;;;;;;4.50;2.50;;;;;;;-145.23;100.00;58621.06;4969364;28;20254;-52
2022/09/27 08:29:14;;;;;;;2.47;2.27;;;;;;;-145.23;100.00;58621.06;4981504;28;20811;-52
2022/09/27 08:31:41;;;;;;;3.50;2.73;;;;;;;-145.23;100.00;58621.06;4977766;28;20234;-53
2022/09/27 08:34:07;;;;;;;3.70;2.57;;;;;;;-145.23;100.00;58621.06;4978209;28;20246;-51
2022/09/27 08:36:36;;;;;;;3.93;3.03;;;;;;;-145.23;100.00;58621.06;4979505;28;20230;-52
2022/09/27 08:39:04;;;;;;;4.77;2.67;;;;;;;-145.23;100.00;58621.06;4975151;28;20315;-51
2022/09/27 08:41:37;;;;;;;2.90;2.67;;;;;;;-145.23;100.00;58621.06;4977813;28;20234;-51
2022/09/27 08:44:15;;;;;;;4.63;2.30;;;;;;;-145.23;100.00;58621.06;4976517;28;20238;-50
2022/09/27 08:46:52;;;;;;;2.53;2.33;;;;;;;-145.23;100.00;58621.06;4979352;28;20244;-51
2022/09/27 08:49:22;;;;;;;3.43;2.70;;;;;;;-145.23;100.00;58621.06;4978028;28;20662;-52
2022/09/27 08:51:51;;;;;;;3.17;2.87;;;;;;;-145.23;100.00;58621.06;4973745;28;20234;-52
2022/09/27 08:54:20;;;;;;;3.17;2.87;;;;;;;-145.23;100.00;58621.06;4978377;28;20274;-52
2022/09/27 08:56:48;;;;;;;3.13;2.30;;;;;;;-145.23;100.00;58621.06;4978864;28;20226;-50
2022/09/27 08:59:20;;;;;;;14.03;3.83;;;;;;;-145.23;100.00;58621.06;4979042;28;20248;-52
2022/09/27 09:01:47;;;;;;;3.13;2.83;;;;;;;-145.23;100.00;58621.06;4976418;28;20706;-51
2022/09/27 09:04:18;;;;;;;3.47;2.57;;;;;;;-145.23;100.00;58621.06;4983020;28;20242;-52
2022/09/27 09:06:49;;;;;;;2.45;2.25;;;;;;;-145.23;100.00;58621.06;4977677;28;20226;-52
2022/09/27 09:09:27;;;;;;;2.75;2.50;;;;;;;-145.23;100.00;58621.06;4980893;28;20234;-52
2022/09/27 09:15:02;;;;;;;3.58;2.30;;;;;;;-145.23;100.00;58621.06;4977084;28;20597;-52
2022/09/27 09:17:39;;;;;;;3.10;2.80;;;;;;;-145.23;100.00;58621.06;4975851;28;20233;-51
2022/09/27 09:20:19;;;;;;;3.42;2.55;;;;;;;-145.23;100.00;58621.06;4980062;28;20283;-51
2022/09/27 09:23:04;;;;;;;4.13;2.80;;;;;;;-145.23;100.00;58621.06;4983631;28;20233;-51
2022/09/27 09:25:36;;;;;;;2.35;2.15;;;;;;;-145.23;100.00;58621.06;4976962;28;20238;-51
2022/09/27 09:28:11;;;;;;;2.70;2.50;;;;;;;-145.23;100.00;58621.06;4975828;28;20710;-52
2022/09/27 09:30:48;;;;;;;2.58;2.38;;;;;;;-145.23;100.00;58621.06;4980711;28;20579;-52
2022/09/27 09:33:22;;;;;;;2.40;2.27;;;;;;;-145.23;100.00;58621.06;4981944;28;20240;-51
2022/09/27 09:35:53;;;;;;;3.22;3.03;;;;;;;-145.23;100.00;58621.06;4979159;28;20241;-52
2022/09/27 09:38:24;;;;;;;2.20;2.08;;;;;;;-145.23;100.00;58621.06;4974408;28;20230;-51
2022/09/27 09:40:54;;;;;;;3.33;2.40;;;;;;;-145.23;100.00;58621.06;4974721;28;20770;-50
2022/09/27 09:43:25;;;;;;;2.75;2.55;;;;;;;-145.23;100.00;58621.06;4974103;28;20241;-50
2022/09/27 09:45:57;;;;;;;3.17;2.40;;;;;;;-145.23;100.00;58621.06;4985143;28;20231;-54
2022/09/27 09:48:28;;;;;;;3.33;3.00;;;;;;;-145.23;100.00;58621.06;4991238;28;20244;-52
2022/09/27 09:50:57;;;;;;;2.92;2.72;;;;;;;-145.23;100.00;58621.06;4990850;28;20252;-51
2022/09/27 09:53:40;;;;;;;3.45;2.97;;;;;;;-145.23;100.00;58621.06;4986081;28;20241;-54
2022/09/27 09:56:11;;;;;;;2.30;2.20;;;;;;;-145.23;100.00;58621.06;4983567;28;20238;-51
2022/09/27 09:58:41;;;;;;;3.40;3.10;;;;;;;-145.23;100.00;58621.06;4978123;28;20229;-51
2022/09/27 10:01:17;;;;;;;2.78;2.58;;;;;;;-145.23;100.00;58621.06;4979321;28;20240;-51
2022/09/27 10:03:44;;;;;;;3.08;2.83;;;;;;;-145.23;100.00;58621.06;4977195;28;20238;-50
2022/09/27 10:06:11;;;;;;;2.50;2.30;;;;;;;-145.23;100.00;58621.06;4974415;28;20239;-51
2022/09/27 10:08:38;;;;;;;2.95;2.75;;;;;;;-145.23;100.00;58621.06;4975685;28;20253;-51
2022/09/27 10:11:04;;;;;;;5.18;2.70;;;;;;;-145.23;100.00;58621.06;4982714;28;20731;-52
2022/09/27 10:13:34;;;;;;;3.53;2.63;;;;;;;-145.23;100.00;58621.06;4979358;28;20233;-53
2022/09/27 10:16:04;;;;;;;3.22;2.95;;;;;;;-145.23;100.00;58621.06;4982137;28;20427;-51
2022/09/27 10:18:32;;;;;;;3.77;2.80;;;;;;;-145.23;100.00;58621.06;4972868;28;20229;-52
2022/09/27 10:21:02;;;;;;;2.40;2.30;;;;;;;-145.23;100.00;58621.06;4979918;28;20234;-51
2022/09/27 10:23:30;;;;;;;2.88;2.67;;;;;;;-145.23;100.00;58621.06;4974543;28;20790;-51
2022/09/27 10:25:58;;;;;;;2.92;2.70;;;;;;;-145.23;100.00;58621.06;4981075;28;20239;-51
2022/09/27 10:28:35;;;;;;;2.50;2.40;;;;;;;-145.23;100.00;58621.06;4971569;28;20222;-52
2022/09/27 10:31:03;;;;;;;2.40;2.30;;;;;;;-145.23;100.00;58621.06;4973864;28;20237;-52
2022/09/27 10:33:32;;;;;;;2.47;2.37;;;;;;;-145.23;100.00;58621.06;4978829;28;20255;-52
2022/09/27 10:35:59;;;;;;;2.55;2.45;;;;;;;-145.23;100.00;58621.06;4974624;28;20322;-51
2022/09/27 10:38:28;;;;;;;5.28;2.97;;;;;;;-145.23;100.00;58621.06;4977474;28;20233;-51
2022/09/27 10:40:57;;;;;;;2.55;2.30;;;;;;;-145.23;100.00;58621.06;4966695;28;20272;-53
2022/09/27 10:43:29;;;;;;;2.85;2.65;;;;;;;-145.23;100.00;58621.06;4976831;28;20268;-51
2022/09/27 10:46:06;;;;;;;2.70;2.50;;;;;;;-145.23;100.00;58621.06;4973628;28;20631;-51
2022/09/27 10:48:36;;;;;;;2.70;2.50;;;;;;;-145.23;100.00;58621.06;4974421;28;20234;-51
2022/09/27 10:51:05;;;;;;;2.80;2.60;;;;;;;-145.23;100.00;58621.06;4975973;28;20230;-52
2022/09/27 10:53:34;;;;;;;4.43;3.17;;;;;;;-145.23;100.00;58621.06;4978170;28;20234;-51
2022/09/27 10:56:01;;;;;;;2.88;2.33;;;;;;;-145.23;100.00;58621.06;4979743;28;20238;-51
2022/09/27 10:58:30;;;;;;;4.80;3.17;;;;;;;-145.23;100.00;58621.06;4974387;28;20240;-52
2022/09/27 11:00:59;;;;;;;3.20;2.92;;;;;;;-145.23;100.00;58621.06;4978037;28;20228;-53
2022/09/27 11:03:27;;;;;;;3.25;3.00;;;;;;;-145.23;100.00;58621.06;4976014;28;20245;-53
2022/09/27 11:05:58;;;;;;;3.50;3.05;;;;;;;-145.23;100.00;58621.06;4978068;28;20226;-54
2022/09/27 11:08:30;;;;;;;2.83;2.50;;;;;;;-145.23;100.00;58621.06;4975592;28;20398;-52
2022/09/27 11:11:02;;;;;;;5.13;2.40;;;;;;;-145.23;100.00;58621.06;4977054;28;20376;-53
2022/09/27 11:13:31;;;;;;;3.13;2.72;;;;;;;-145.23;100.00;58621.06;4980791;28;20887;-53
2022/09/27 11:16:06;;;;;;;3.88;2.90;;;;;;;-145.23;100.00;58621.06;4982493;28;20238;-53
2022/09/27 11:18:38;;;;;;;5.60;3.20;;;;;;;-145.23;100.00;58621.06;4974767;28;20229;-54
2022/09/27 11:21:12;;;;;;;3.10;2.47;;;;;;;-145.23;100.00;58621.06;4965191;28;20238;-52
2022/09/27 11:23:48;;;;;;;4.37;3.63;;;;;;;-145.23;100.00;58621.06;4972572;28;20287;-53
2022/09/27 11:26:26;;;;;;;3.27;3.07;;;;;;;-145.23;100.00;58621.06;4977443;28;20367;-51
2022/09/27 11:29:01;;;;;;;3.25;3.00;;;;;;;-145.23;100.00;58621.06;4973325;28;20225;-51
2022/09/27 11:31:32;;;;;;;5.60;3.90;;;;;;;-145.23;100.00;58621.06;4976223;28;20233;-51
2022/09/27 11:34:12;;;;;;;4.57;4.03;;;;;;;-145.23;100.00;58621.06;4974275;28;20245;-52